LFBC weather

Cazaux (BA 120) Air Base
Cazaux (La Teste-de-Buch), Aquitaine, France

Public forecast

Using degrees Celsius for public forecast. Weather courtesy of forecast.io.

METAR (pilot weather report)

Retrieved 2019/03/22 16:30 UTC (16 minutes ago):

LFBC 221630Z AUTO 29008KT 270V330 CAVOK 20/01 Q1026 NOSIG

TAF (pilot weather forecast)

Retrieved 2019/03/22 16:00 UTC (46 minutes ago):

TAF LFBC 221654Z 2216/2315 CNL